createdAt,value
2018-06-21T00:00:05.732Z,0.00
2018-06-21T00:01:05.687Z,0.00
2018-06-21T00:02:05.672Z,0.00
2018-06-21T00:03:05.638Z,0.00
2018-06-21T00:04:05.559Z,0.00
2018-06-21T00:05:05.515Z,0.00
2018-06-21T00:06:05.469Z,0.00
2018-06-21T00:07:05.424Z,0.00
2018-06-21T00:08:05.404Z,0.00
2018-06-21T00:09:05.331Z,0.00
2018-06-21T00:10:05.285Z,0.00
2018-06-21T00:11:05.241Z,0.00
2018-06-21T00:12:05.197Z,0.00
2018-06-21T00:13:05.184Z,0.00
2018-06-21T00:14:05.106Z,0.00
2018-06-21T00:15:05.065Z,0.00
2018-06-21T00:16:05.050Z,0.00
2018-06-21T00:17:04.974Z,0.00
2018-06-21T00:18:04.932Z,0.00
2018-06-21T00:19:04.884Z,0.00
2018-06-21T00:20:04.873Z,0.00
2018-06-21T00:21:04.794Z,0.00
2018-06-21T00:22:04.750Z,0.00
2018-06-21T00:23:04.705Z,0.00
2018-06-21T00:24:04.659Z,0.00
2018-06-21T00:25:04.645Z,0.00
2018-06-21T00:26:04.603Z,0.00
2018-06-21T00:27:04.525Z,0.00
2018-06-21T00:28:04.481Z,0.00
2018-06-21T00:29:04.473Z,0.00
2018-06-21T00:30:04.404Z,0.00
2018-06-21T00:31:04.349Z,0.00
2018-06-21T00:32:04.303Z,0.00
2018-06-21T00:33:04.257Z,0.00
2018-06-21T00:34:04.243Z,0.00
2018-06-21T00:35:04.168Z,0.00
2018-06-21T00:36:04.123Z,0.00
2018-06-21T00:37:04.080Z,0.00
2018-06-21T00:38:04.076Z,0.00
2018-06-21T00:39:03.991Z,0.00
2018-06-21T00:40:03.944Z,0.00
2018-06-21T00:41:03.897Z,0.00
2018-06-21T00:42:03.855Z,0.00
2018-06-21T00:43:03.853Z,0.00
2018-06-21T00:44:03.767Z,0.00
2018-06-21T00:45:03.721Z,0.00
2018-06-21T00:46:03.675Z,0.00
2018-06-21T00:47:03.631Z,0.00
2018-06-21T00:48:03.620Z,0.00
2018-06-21T00:49:03.544Z,0.00
2018-06-21T00:50:03.498Z,0.00
2018-06-21T00:51:03.457Z,0.00
2018-06-21T00:52:03.411Z,0.00
2018-06-21T00:53:03.397Z,0.00
2018-06-21T00:54:03.320Z,0.00
2018-06-21T00:55:03.274Z,0.00
2018-06-21T00:56:03.228Z,0.00
2018-06-21T00:57:03.189Z,0.00
2018-06-21T00:58:03.177Z,0.00
2018-06-21T00:59:03.095Z,0.00
2018-06-21T01:00:03.082Z,0.00
2018-06-21T01:01:03.009Z,0.00
2018-06-21T01:02:02.960Z,0.00
2018-06-21T01:03:02.955Z,0.00
2018-06-21T01:04:02.872Z,0.00
2018-06-21T01:05:02.831Z,0.00
2018-06-21T01:06:02.784Z,0.00
2018-06-21T01:07:02.770Z,0.00
2018-06-21T01:08:02.692Z,0.00
2018-06-21T01:09:02.648Z,0.00
2018-06-21T01:10:02.604Z,0.00
2018-06-21T01:11:02.559Z,0.00
2018-06-21T01:12:02.544Z,0.00
2018-06-21T01:13:02.469Z,0.00
2018-06-21T01:14:02.463Z,0.00
2018-06-21T01:15:02.383Z,0.00
2018-06-21T01:16:02.334Z,0.00
2018-06-21T01:17:02.295Z,0.00
2018-06-21T01:18:02.282Z,0.00
2018-06-21T01:19:02.203Z,0.00
2018-06-21T01:20:02.157Z,0.00
2018-06-21T01:21:02.111Z,0.00
2018-06-21T01:22:02.073Z,0.00
2018-06-21T01:23:02.056Z,0.00
2018-06-21T01:24:02.028Z,0.00
2018-06-21T01:25:01.933Z,0.00
2018-06-21T01:26:01.888Z,0.00
2018-06-21T01:27:01.842Z,0.00
2018-06-21T01:28:01.797Z,0.00
2018-06-21T01:29:01.791Z,0.00
2018-06-21T01:30:01.708Z,0.00
2018-06-21T01:31:01.664Z,0.00
2018-06-21T01:32:01.618Z,0.00
2018-06-21T01:33:01.573Z,0.00
2018-06-21T01:34:01.566Z,0.00
2018-06-21T01:35:01.482Z,0.00
2018-06-21T01:36:01.468Z,0.00
2018-06-21T01:37:01.400Z,0.00
2018-06-21T01:38:01.347Z,0.00
2018-06-21T01:39:01.307Z,0.00
2018-06-21T01:40:01.292Z,0.00
2018-06-21T01:41:01.217Z,0.00
2018-06-21T01:42:01.167Z,0.00
2018-06-21T01:43:01.179Z,0.00
2018-06-21T01:44:01.079Z,0.00
2018-06-21T01:45:01.034Z,0.00
2018-06-21T01:46:01.019Z,0.00
2018-06-21T01:47:00.941Z,0.00
2018-06-21T01:48:00.928Z,0.00
2018-06-21T01:49:00.856Z,0.00
2018-06-21T01:50:00.813Z,0.00
2018-06-21T01:51:00.764Z,0.00
2018-06-21T01:52:00.716Z,0.00
2018-06-21T01:53:00.706Z,0.00
2018-06-21T01:54:00.626Z,0.00
2018-06-21T01:55:00.584Z,0.00
2018-06-21T01:56:00.537Z,0.00
2018-06-21T01:57:00.492Z,0.00
2018-06-21T01:58:00.489Z,0.00
2018-06-21T01:59:00.402Z,0.00
2018-06-21T02:00:00.359Z,0.00
2018-06-21T02:01:00.310Z,0.00
2018-06-21T02:02:00.266Z,0.00
2018-06-21T02:03:00.272Z,0.00
2018-06-21T02:04:00.173Z,0.00
2018-06-21T02:05:00.129Z,0.00
2018-06-21T02:06:00.089Z,0.00
2018-06-21T02:07:00.040Z,0.00
2018-06-21T02:08:00.093Z,0.00
2018-06-21T02:08:59.983Z,0.00
2018-06-21T02:09:59.938Z,0.00
2018-06-21T02:10:59.857Z,0.00
2018-06-21T02:11:59.816Z,0.00
2018-06-21T02:12:59.769Z,0.00
2018-06-21T02:13:59.754Z,0.00
2018-06-21T02:14:59.710Z,0.00
2018-06-21T02:15:59.639Z,0.00
2018-06-21T02:16:59.589Z,0.00
2018-06-21T02:17:59.540Z,0.00
2018-06-21T02:18:59.499Z,0.00
2018-06-21T02:19:59.483Z,0.00
2018-06-21T02:20:59.405Z,0.00
2018-06-21T02:21:59.362Z,0.00
2018-06-21T02:22:59.324Z,0.00
2018-06-21T02:23:59.272Z,0.00
2018-06-21T02:24:59.258Z,0.00
2018-06-21T02:25:59.182Z,0.00
2018-06-21T02:26:59.136Z,0.00
2018-06-21T02:27:59.089Z,0.00
2018-06-21T02:28:59.044Z,0.00
2018-06-21T02:29:59.034Z,0.00
2018-06-21T02:30:58.960Z,0.00
2018-06-21T02:31:58.920Z,0.00
2018-06-21T02:32:58.863Z,0.00
2018-06-21T02:33:58.821Z,0.00
2018-06-21T02:34:58.804Z,0.00
2018-06-21T02:35:58.731Z,0.00
2018-06-21T02:36:58.713Z,0.00
2018-06-21T02:37:58.636Z,0.00
2018-06-21T02:38:58.589Z,0.00
2018-06-21T02:39:58.548Z,0.00
2018-06-21T02:40:58.531Z,0.00
2018-06-21T02:41:58.453Z,0.00
2018-06-21T02:42:58.412Z,0.00
2018-06-21T02:43:58.363Z,0.00
2018-06-21T02:44:58.323Z,0.00
2018-06-21T02:45:58.307Z,0.00
2018-06-21T02:46:58.226Z,0.00
2018-06-21T02:47:58.189Z,0.00
2018-06-21T02:48:58.170Z,0.00
2018-06-21T02:49:58.096Z,0.00
2018-06-21T02:50:58.047Z,0.00
2018-06-21T02:51:58.032Z,0.00
2018-06-21T02:52:57.952Z,0.00
2018-06-21T02:53:57.908Z,0.00
2018-06-21T02:54:57.867Z,0.00
2018-06-21T02:55:57.822Z,0.00
2018-06-21T02:56:57.814Z,0.00
2018-06-21T02:57:57.728Z,0.00
2018-06-21T02:58:57.683Z,0.00
2018-06-21T02:59:57.638Z,0.00
2018-06-21T03:00:57.593Z,0.00
2018-06-21T03:01:57.580Z,0.00
2018-06-21T03:02:57.510Z,0.00
2018-06-21T03:03:57.544Z,0.00
2018-06-21T03:04:57.412Z,0.00
2018-06-21T03:05:57.367Z,0.00
2018-06-21T03:06:57.354Z,0.00
2018-06-21T03:07:57.276Z,0.00
2018-06-21T03:08:57.260Z,0.00
2018-06-21T03:09:57.184Z,0.00
2018-06-21T03:10:57.144Z,0.00
2018-06-21T03:11:57.091Z,0.00
2018-06-21T03:12:57.046Z,5.63
2018-06-21T03:13:57.037Z,5.63
2018-06-21T03:14:56.958Z,5.63
2018-06-21T03:15:56.911Z,5.63
2018-06-21T03:16:56.864Z,5.63
2018-06-21T03:17:56.820Z,5.63
2018-06-21T03:18:56.808Z,5.63
2018-06-21T03:19:56.728Z,5.63
2018-06-21T03:20:56.685Z,5.63
2018-06-21T03:21:56.652Z,5.63
2018-06-21T03:22:56.597Z,5.63
2018-06-21T03:23:56.586Z,5.63
2018-06-21T03:24:56.501Z,11.25
2018-06-21T03:25:56.457Z,11.25
2018-06-21T03:26:56.412Z,11.25
2018-06-21T03:27:56.365Z,11.25
2018-06-21T03:28:56.356Z,11.25
2018-06-21T03:29:56.271Z,11.25
2018-06-21T03:30:56.261Z,11.25
2018-06-21T03:31:56.182Z,11.25
2018-06-21T03:32:56.139Z,16.88
2018-06-21T03:33:56.092Z,16.88
2018-06-21T03:34:56.049Z,16.88
2018-06-21T03:35:56.032Z,16.88
2018-06-21T03:36:55.954Z,16.88
2018-06-21T03:37:55.908Z,16.88
2018-06-21T03:38:55.863Z,16.88
2018-06-21T03:39:55.850Z,22.50
2018-06-21T03:40:55.774Z,22.50
2018-06-21T03:41:55.760Z,22.50
2018-06-21T03:42:55.684Z,22.50
2018-06-21T03:43:55.635Z,22.50
2018-06-21T03:44:55.593Z,22.50
2018-06-21T03:45:55.549Z,22.50
2018-06-21T03:46:55.533Z,22.50
2018-06-21T03:47:55.453Z,22.50
2018-06-21T03:48:55.409Z,28.13
2018-06-21T03:49:55.363Z,28.13
2018-06-21T03:50:55.319Z,28.13
2018-06-21T03:51:55.402Z,28.13
2018-06-21T03:52:55.233Z,22.50
2018-06-21T03:53:55.186Z,22.50
2018-06-21T03:54:55.145Z,22.50
2018-06-21T03:55:55.097Z,28.13
2018-06-21T03:56:55.086Z,28.13
2018-06-21T03:57:55.000Z,28.13
2018-06-21T03:58:54.956Z,28.13
2018-06-21T03:59:54.936Z,28.13
2018-06-21T04:00:54.865Z,33.75
2018-06-21T04:01:54.861Z,33.75
2018-06-21T04:02:54.773Z,33.75
2018-06-21T04:03:54.730Z,33.75
2018-06-21T04:04:54.682Z,33.75
2018-06-21T04:05:54.638Z,39.38
2018-06-21T04:06:54.633Z,39.38
2018-06-21T04:07:54.587Z,39.38
2018-06-21T04:08:54.501Z,39.38
2018-06-21T04:09:54.461Z,39.38
2018-06-21T04:10:54.414Z,39.38
2018-06-21T04:11:54.369Z,39.38
2018-06-21T04:12:54.368Z,39.38
2018-06-21T04:13:54.280Z,39.38
2018-06-21T04:14:54.233Z,45.00
2018-06-21T04:15:54.188Z,45.00
2018-06-21T04:16:54.144Z,45.00
2018-06-21T04:17:54.128Z,45.00
2018-06-21T04:18:54.058Z,45.00
2018-06-21T04:19:54.005Z,45.00
2018-06-21T04:20:53.992Z,45.00
2018-06-21T04:21:53.919Z,45.00
2018-06-21T04:22:53.872Z,50.63
2018-06-21T04:23:53.862Z,50.63
2018-06-21T04:24:53.782Z,50.63
2018-06-21T04:25:53.737Z,50.63
2018-06-21T04:26:53.691Z,50.63
2018-06-21T04:27:53.650Z,50.63
2018-06-21T04:28:53.635Z,50.63
2018-06-21T04:29:53.561Z,50.63
2018-06-21T04:30:53.512Z,56.25
2018-06-21T04:31:53.468Z,56.25
2018-06-21T04:32:53.420Z,56.25
2018-06-21T04:33:53.408Z,56.25
2018-06-21T04:34:53.336Z,56.25
2018-06-21T04:35:53.322Z,56.25
2018-06-21T04:36:53.245Z,56.25
2018-06-21T04:37:53.262Z,56.25
2018-06-21T04:38:53.192Z,56.25
2018-06-21T04:39:53.107Z,61.88
2018-06-21T04:40:53.111Z,61.88
2018-06-21T04:41:53.017Z,61.88
2018-06-21T04:42:52.976Z,61.88
2018-06-21T04:43:52.928Z,61.88
2018-06-21T04:44:52.884Z,61.88
2018-06-21T04:45:52.930Z,61.88
2018-06-21T04:46:52.792Z,61.88
2018-06-21T04:47:52.745Z,61.88
2018-06-21T04:48:52.703Z,61.88
2018-06-21T04:49:52.660Z,67.50
2018-06-21T04:50:52.647Z,67.50
2018-06-21T04:51:52.571Z,67.50
2018-06-21T04:52:52.523Z,67.50
2018-06-21T04:53:52.478Z,67.50
2018-06-21T04:54:52.469Z,67.50
2018-06-21T04:55:52.390Z,67.50
2018-06-21T04:56:52.343Z,67.50
2018-06-21T04:57:52.300Z,67.50
2018-06-21T04:58:52.253Z,67.50
2018-06-21T04:59:52.239Z,67.50
2018-06-21T05:00:52.169Z,67.50
2018-06-21T05:01:52.121Z,73.13
2018-06-21T05:02:52.075Z,73.13
2018-06-21T05:03:52.034Z,73.13
2018-06-21T05:04:52.018Z,73.13
2018-06-21T05:05:51.944Z,73.13
2018-06-21T05:06:51.896Z,67.50
2018-06-21T05:07:51.886Z,67.50
2018-06-21T05:08:51.809Z,67.50
2018-06-21T05:09:51.765Z,67.50
2018-06-21T05:10:51.716Z,67.50
2018-06-21T05:11:51.676Z,73.13
2018-06-21T05:12:51.668Z,73.13
2018-06-21T05:13:51.586Z,73.13
2018-06-21T05:14:51.542Z,73.13
2018-06-21T05:15:51.494Z,78.75
2018-06-21T05:16:51.450Z,78.75
2018-06-21T05:17:51.438Z,78.75
2018-06-21T05:18:51.359Z,78.75
2018-06-21T05:19:51.319Z,78.75
2018-06-21T05:20:51.308Z,78.75
2018-06-21T05:21:51.232Z,78.75
2018-06-21T05:22:51.188Z,78.75
2018-06-21T05:23:51.169Z,78.75
2018-06-21T05:24:51.093Z,78.75
2018-06-21T05:25:51.080Z,84.38
2018-06-21T05:26:51.005Z,84.38
2018-06-21T05:27:50.960Z,84.38
2018-06-21T05:28:50.944Z,84.38
2018-06-21T05:29:50.870Z,84.38
2018-06-21T05:30:50.831Z,84.38
2018-06-21T05:31:50.781Z,84.38
2018-06-21T05:32:50.737Z,84.38
2018-06-21T05:33:50.726Z,84.38
2018-06-21T05:34:50.649Z,84.38
2018-06-21T05:35:50.606Z,90.00
2018-06-21T05:36:50.577Z,90.00
2018-06-21T05:37:50.515Z,90.00
2018-06-21T05:38:50.507Z,90.00
2018-06-21T05:39:50.426Z,90.00
2018-06-21T05:40:50.383Z,90.00
2018-06-21T05:41:50.373Z,90.00
2018-06-21T05:42:50.295Z,95.63
2018-06-21T05:43:50.251Z,95.63
2018-06-21T05:44:50.255Z,95.63
2018-06-21T05:45:50.162Z,95.63
2018-06-21T05:46:50.118Z,95.63
2018-06-21T05:47:50.072Z,95.63
2018-06-21T05:48:50.030Z,95.63
2018-06-21T05:49:50.016Z,95.63
2018-06-21T05:50:49.943Z,101.25
2018-06-21T05:51:49.899Z,101.25
2018-06-21T05:52:49.857Z,101.25
2018-06-21T05:53:49.841Z,101.25
2018-06-21T05:54:49.766Z,101.25
2018-06-21T05:55:49.723Z,101.25
2018-06-21T05:56:49.680Z,101.25
2018-06-21T05:57:49.673Z,101.25
2018-06-21T05:58:49.594Z,106.88
2018-06-21T05:59:49.545Z,106.88
2018-06-21T06:00:49.500Z,106.88
2018-06-21T06:01:49.460Z,106.88
2018-06-21T06:02:49.458Z,106.88
2018-06-21T06:03:49.368Z,112.50
2018-06-21T06:04:49.326Z,112.50
2018-06-21T06:05:49.282Z,112.50
2018-06-21T06:06:49.241Z,112.50
2018-06-21T06:07:49.234Z,112.50
2018-06-21T06:08:49.157Z,118.13
2018-06-21T06:09:49.107Z,118.13
2018-06-21T06:10:49.065Z,118.13
2018-06-21T06:11:49.023Z,118.13
2018-06-21T06:12:49.019Z,118.13
2018-06-21T06:13:48.937Z,123.75
2018-06-21T06:14:48.892Z,118.13
2018-06-21T06:15:48.845Z,123.75
2018-06-21T06:16:48.848Z,129.38
2018-06-21T06:17:48.760Z,129.38
2018-06-21T06:18:48.714Z,129.38
2018-06-21T06:19:48.674Z,135.00
2018-06-21T06:20:48.627Z,135.00
2018-06-21T06:21:48.630Z,135.00
2018-06-21T06:22:48.546Z,135.00
2018-06-21T06:23:48.496Z,135.00
2018-06-21T06:24:48.454Z,135.00
2018-06-21T06:25:48.411Z,140.63
2018-06-21T06:26:48.407Z,140.63
2018-06-21T06:27:48.323Z,140.63
2018-06-21T06:28:48.280Z,140.63
2018-06-21T06:29:48.238Z,140.63
2018-06-21T06:30:48.196Z,140.63
2018-06-21T06:31:48.183Z,140.63
2018-06-21T06:32:48.142Z,140.63
2018-06-21T06:33:48.068Z,140.63
2018-06-21T06:34:48.096Z,146.25
2018-06-21T06:35:47.981Z,146.25
2018-06-21T06:36:47.937Z,146.25
2018-06-21T06:37:47.925Z,146.25
2018-06-21T06:38:47.846Z,151.88
2018-06-21T06:39:47.803Z,151.88
2018-06-21T06:40:47.762Z,151.88
2018-06-21T06:41:47.750Z,157.50
2018-06-21T06:42:47.678Z,157.50
2018-06-21T06:43:47.630Z,157.50
2018-06-21T06:44:47.587Z,157.50
2018-06-21T06:45:47.574Z,157.50
2018-06-21T06:46:47.500Z,163.13
2018-06-21T06:47:47.459Z,168.75
2018-06-21T06:48:47.414Z,168.75
2018-06-21T06:49:47.371Z,168.75
2018-06-21T06:50:47.357Z,174.38
2018-06-21T06:51:47.283Z,168.75
2018-06-21T06:52:47.242Z,168.75
2018-06-21T06:53:47.240Z,174.38
2018-06-21T06:54:47.233Z,174.38
2018-06-21T06:55:47.113Z,174.38
2018-06-21T06:56:47.071Z,174.38
2018-06-21T06:57:47.034Z,180.00
2018-06-21T06:58:47.018Z,180.00
2018-06-21T06:59:46.942Z,185.63
2018-06-21T07:00:46.901Z,185.63
2018-06-21T07:01:46.859Z,185.63
2018-06-21T07:02:46.853Z,191.25
2018-06-21T07:03:46.773Z,196.88
2018-06-21T07:04:46.726Z,202.50
2018-06-21T07:05:46.687Z,196.88
2018-06-21T07:06:46.642Z,202.50
2018-06-21T07:07:46.640Z,202.50
2018-06-21T07:08:46.557Z,202.50
2018-06-21T07:09:46.515Z,202.50
2018-06-21T07:10:46.513Z,208.13
2018-06-21T07:11:46.429Z,208.13
2018-06-21T07:12:46.390Z,213.75
2018-06-21T07:13:46.341Z,213.75
2018-06-21T07:14:46.300Z,213.75
2018-06-21T07:15:46.288Z,213.75
2018-06-21T07:16:46.214Z,213.75
2018-06-21T07:17:46.170Z,213.75
2018-06-21T07:18:46.130Z,213.75
2018-06-21T07:19:46.122Z,213.75
2018-06-21T07:20:46.042Z,219.38
2018-06-21T07:21:46.003Z,219.38
2018-06-21T07:22:45.963Z,225.00
2018-06-21T07:23:45.916Z,219.38
2018-06-21T07:24:45.904Z,225.00
2018-06-21T07:25:45.833Z,225.00
2018-06-21T07:26:45.791Z,225.00
2018-06-21T07:27:45.783Z,230.63
2018-06-21T07:28:45.706Z,241.88
2018-06-21T07:29:45.661Z,247.50
2018-06-21T07:30:45.657Z,247.50
2018-06-21T07:31:45.578Z,247.50
2018-06-21T07:32:45.537Z,258.75
2018-06-21T07:33:45.492Z,236.25
2018-06-21T07:34:45.453Z,253.13
2018-06-21T07:35:45.445Z,225.00
2018-06-21T07:36:45.382Z,219.38
2018-06-21T07:37:45.327Z,213.75
2018-06-21T07:38:45.325Z,196.88
2018-06-21T07:39:45.248Z,196.88
2018-06-21T07:40:45.208Z,213.75
2018-06-21T07:41:45.160Z,202.50
2018-06-21T07:42:45.116Z,208.13
2018-06-21T07:43:45.103Z,191.25
2018-06-21T07:44:45.062Z,213.75
2018-06-21T07:45:44.986Z,219.38
2018-06-21T07:46:44.949Z,225.00
2018-06-21T07:47:44.902Z,225.00
2018-06-21T07:48:44.899Z,230.63
2018-06-21T07:49:44.821Z,236.25
2018-06-21T07:50:44.777Z,241.88
2018-06-21T07:51:44.769Z,258.75
2018-06-21T07:52:44.696Z,281.25
2018-06-21T07:53:44.657Z,298.13
2018-06-21T07:54:44.610Z,298.13
2018-06-21T07:55:44.603Z,270.00
2018-06-21T07:56:44.530Z,292.50
2018-06-21T07:57:44.488Z,292.50
2018-06-21T07:58:44.443Z,298.13
2018-06-21T07:59:44.402Z,292.50
2018-06-21T08:00:44.391Z,303.75
2018-06-21T08:01:44.358Z,303.75
2018-06-21T08:02:44.277Z,303.75
2018-06-21T08:03:44.237Z,281.25
2018-06-21T08:04:44.193Z,264.38
2018-06-21T08:05:44.153Z,292.50
2018-06-21T08:06:44.144Z,253.13
2018-06-21T08:07:44.071Z,241.88
2018-06-21T08:08:44.029Z,253.13
2018-06-21T08:09:44.034Z,270.00
2018-06-21T08:10:43.951Z,270.00
2018-06-21T08:11:43.904Z,298.13
2018-06-21T08:12:43.865Z,320.63
2018-06-21T08:13:43.823Z,258.75
2018-06-21T08:14:43.824Z,315.00
2018-06-21T08:15:43.737Z,326.25
2018-06-21T08:16:43.698Z,326.25
2018-06-21T08:17:43.657Z,309.38
2018-06-21T08:18:43.616Z,315.00
2018-06-21T08:19:43.607Z,320.63
2018-06-21T08:20:43.533Z,303.75
2018-06-21T08:21:43.498Z,315.00
2018-06-21T08:22:43.452Z,309.38
2018-06-21T08:23:43.442Z,303.75
2018-06-21T08:24:43.372Z,270.00
2018-06-21T08:25:43.332Z,241.88
2018-06-21T08:26:43.347Z,241.88
2018-06-21T08:27:43.259Z,236.25
2018-06-21T08:28:43.245Z,247.50
2018-06-21T08:29:43.201Z,253.13
2018-06-21T08:30:43.126Z,270.00
2018-06-21T08:31:43.084Z,270.00
2018-06-21T08:32:43.048Z,270.00
2018-06-21T08:33:43.001Z,286.88
2018-06-21T08:34:43.006Z,270.00
2018-06-21T08:35:42.923Z,309.38
2018-06-21T08:36:42.878Z,315.00
2018-06-21T08:37:42.871Z,315.00
2018-06-21T08:38:42.866Z,315.00
2018-06-21T08:39:42.789Z,337.50
2018-06-21T08:40:42.715Z,343.13
2018-06-21T08:41:42.707Z,331.88
2018-06-21T08:42:42.636Z,326.25
2018-06-21T08:43:42.599Z,315.00
2018-06-21T08:44:42.559Z,326.25
2018-06-21T08:45:42.566Z,315.00
2018-06-21T08:46:42.504Z,337.50
2018-06-21T08:47:42.435Z,320.63
2018-06-21T08:48:42.394Z,360.00
2018-06-21T08:49:42.354Z,360.00
2018-06-21T08:50:42.313Z,360.00
2018-06-21T08:51:42.304Z,354.38
2018-06-21T08:52:42.265Z,337.50
2018-06-21T08:53:42.194Z,388.13
2018-06-21T08:54:42.195Z,399.38
2018-06-21T08:55:42.111Z,393.75
2018-06-21T08:56:42.069Z,393.75
2018-06-21T08:57:42.062Z,393.75
2018-06-21T08:58:41.989Z,393.75
2018-06-21T08:59:41.951Z,382.50
2018-06-21T09:00:41.907Z,354.38
2018-06-21T09:01:41.869Z,354.38
2018-06-21T09:02:41.863Z,320.63
2018-06-21T09:03:41.847Z,298.13
2018-06-21T09:04:41.759Z,331.88
2018-06-21T09:05:41.710Z,292.50
2018-06-21T09:06:41.672Z,309.38
2018-06-21T09:07:41.663Z,286.88
2018-06-21T09:08:41.588Z,292.50
2018-06-21T09:09:41.553Z,292.50
2018-06-21T09:10:41.511Z,275.63
2018-06-21T09:11:41.470Z,320.63
2018-06-21T09:12:41.472Z,326.25
2018-06-21T09:13:41.390Z,326.25
2018-06-21T09:14:41.354Z,320.63
2018-06-21T09:15:41.310Z,326.25
2018-06-21T09:16:41.272Z,326.25
2018-06-21T09:17:41.263Z,315.00
2018-06-21T09:18:41.229Z,343.13
2018-06-21T09:19:41.149Z,320.63
2018-06-21T09:20:41.111Z,298.13
2018-06-21T09:21:41.103Z,292.50
2018-06-21T09:22:41.030Z,320.63
2018-06-21T09:23:40.989Z,320.63
2018-06-21T09:24:40.984Z,337.50
2018-06-21T09:25:40.912Z,315.00
2018-06-21T09:26:40.874Z,286.88
2018-06-21T09:27:40.831Z,270.00
2018-06-21T09:28:40.793Z,253.13
2018-06-21T09:29:40.785Z,236.25
2018-06-21T09:30:40.713Z,225.00
2018-06-21T09:31:40.686Z,236.25
2018-06-21T09:32:40.634Z,264.38
2018-06-21T09:33:40.601Z,281.25
2018-06-21T09:34:40.596Z,281.25
2018-06-21T09:35:40.516Z,281.25
2018-06-21T09:36:40.478Z,315.00
2018-06-21T09:37:40.436Z,303.75
2018-06-21T09:38:40.400Z,309.38
2018-06-21T09:39:40.399Z,309.38
2018-06-21T09:40:40.317Z,292.50
2018-06-21T09:41:40.285Z,303.75
2018-06-21T09:42:40.249Z,298.13
2018-06-21T09:43:50.296Z,309.38
2018-06-21T09:44:40.410Z,309.38
2018-06-21T09:45:40.127Z,309.38
2018-06-21T09:46:40.081Z,326.25
2018-06-21T09:47:40.042Z,343.13
2018-06-21T09:48:40.005Z,371.25
2018-06-21T09:49:40.007Z,360.00
2018-06-21T09:50:39.925Z,331.88
2018-06-21T09:51:39.884Z,320.63
2018-06-21T09:52:39.856Z,281.25
2018-06-21T09:53:39.842Z,270.00
2018-06-21T09:54:39.803Z,253.13
2018-06-21T09:55:39.725Z,258.75
2018-06-21T09:56:39.686Z,264.38
2018-06-21T09:57:39.677Z,225.00
2018-06-21T09:58:39.609Z,213.75
2018-06-21T09:59:39.600Z,213.75
2018-06-21T10:00:39.563Z,225.00
2018-06-21T10:01:39.487Z,225.00
2018-06-21T10:02:39.451Z,230.63
2018-06-21T10:03:39.409Z,213.75
2018-06-21T10:04:39.389Z,185.63
2018-06-21T10:05:39.362Z,174.38
2018-06-21T10:06:39.293Z,157.50
2018-06-21T10:07:39.256Z,157.50
2018-06-21T10:08:39.210Z,140.63
2018-06-21T10:09:39.225Z,129.38
2018-06-21T10:10:39.131Z,118.13
2018-06-21T10:11:39.096Z,101.25
2018-06-21T10:12:39.055Z,90.00
2018-06-21T10:13:39.014Z,95.63
2018-06-21T10:14:39.004Z,118.13
2018-06-21T10:15:38.957Z,157.50
2018-06-21T10:16:38.925Z,208.13
2018-06-21T10:17:38.851Z,247.50
2018-06-21T10:18:38.813Z,270.00
2018-06-21T10:19:38.800Z,253.13
2018-06-21T10:20:38.734Z,315.00
2018-06-21T10:21:38.733Z,241.88
2018-06-21T10:22:38.649Z,213.75
2018-06-21T10:23:38.609Z,191.25
2018-06-21T10:24:38.574Z,157.50
2018-06-21T10:25:38.565Z,129.38
2018-06-21T10:26:38.590Z,101.25
2018-06-21T10:27:38.448Z,84.38
2018-06-21T10:28:38.408Z,73.13
2018-06-21T10:29:38.377Z,61.88
2018-06-21T10:30:38.327Z,56.25
2018-06-21T10:31:38.317Z,56.25
2018-06-21T10:32:38.290Z,61.88
2018-06-21T10:33:38.207Z,67.50
2018-06-21T10:34:38.165Z,84.38
2018-06-21T10:35:38.128Z,123.75
2018-06-21T10:36:38.084Z,112.50
2018-06-21T10:37:38.079Z,185.63
2018-06-21T10:38:38.005Z,180.00
2018-06-21T10:39:37.963Z,196.88
2018-06-21T10:40:37.924Z,208.13
2018-06-21T10:41:37.913Z,213.75
2018-06-21T10:42:37.856Z,196.88
2018-06-21T10:43:37.800Z,180.00
2018-06-21T10:44:37.760Z,157.50
2018-06-21T10:45:37.732Z,135.00
2018-06-21T10:46:37.742Z,135.00
2018-06-21T10:47:37.653Z,151.88
2018-06-21T10:48:37.605Z,180.00
2018-06-21T10:49:37.556Z,208.13
2018-06-21T10:50:37.517Z,253.13
2018-06-21T10:51:37.512Z,253.13
2018-06-21T10:52:37.437Z,225.00
2018-06-21T10:53:37.432Z,196.88
2018-06-21T10:54:37.356Z,180.00
2018-06-21T10:55:37.312Z,157.50
2018-06-21T10:56:37.282Z,135.00
2018-06-21T10:57:37.248Z,112.50
2018-06-21T10:58:37.229Z,95.63
2018-06-21T10:59:37.149Z,73.13
2018-06-21T11:00:37.108Z,67.50
2018-06-21T11:01:37.070Z,67.50
2018-06-21T11:02:37.030Z,67.50
2018-06-21T11:03:37.032Z,56.25
2018-06-21T11:04:36.948Z,45.00
2018-06-21T11:05:36.904Z,45.00
2018-06-21T11:06:36.864Z,45.00
2018-06-21T11:07:36.827Z,39.38
2018-06-21T11:08:36.832Z,39.38
2018-06-21T11:09:36.740Z,33.75
2018-06-21T11:10:36.700Z,33.75
2018-06-21T11:11:36.659Z,33.75
2018-06-21T11:12:36.617Z,33.75
2018-06-21T11:13:36.607Z,33.75
2018-06-21T11:14:36.539Z,28.13
2018-06-21T11:15:36.493Z,33.75
2018-06-21T11:16:36.453Z,28.13
2018-06-21T11:17:36.410Z,28.13
2018-06-21T11:18:36.404Z,28.13
2018-06-21T11:19:36.366Z,28.13
2018-06-21T11:20:36.284Z,33.75
2018-06-21T11:21:36.287Z,33.75
2018-06-21T11:22:36.204Z,33.75
2018-06-21T11:23:36.160Z,28.13
2018-06-21T11:24:36.118Z,28.13
2018-06-21T11:25:36.076Z,33.75
2018-06-21T11:26:36.085Z,33.75
2018-06-21T11:27:36.039Z,39.38
2018-06-21T11:28:35.950Z,45.00
2018-06-21T11:29:35.907Z,50.63
2018-06-21T11:30:35.871Z,50.63
2018-06-21T11:31:35.858Z,45.00
2018-06-21T11:32:35.781Z,56.25
2018-06-21T11:33:35.738Z,61.88
2018-06-21T11:34:35.702Z,56.25
2018-06-21T11:35:35.658Z,56.25
2018-06-21T11:36:35.651Z,50.63
2018-06-21T11:37:35.572Z,50.63
2018-06-21T11:38:35.529Z,50.63
2018-06-21T11:39:35.485Z,45.00
2018-06-21T11:40:35.443Z,45.00
2018-06-21T11:41:35.432Z,45.00
2018-06-21T11:42:35.360Z,50.63
2018-06-21T11:43:35.316Z,50.63
2018-06-21T11:44:35.273Z,50.63
2018-06-21T11:45:35.266Z,56.25
2018-06-21T11:46:35.197Z,50.63
2018-06-21T11:47:35.185Z,45.00
2018-06-21T11:48:35.103Z,45.00
2018-06-21T11:49:35.063Z,45.00
2018-06-21T11:50:35.023Z,45.00
2018-06-21T11:51:34.983Z,39.38
2018-06-21T11:52:34.967Z,39.38
2018-06-21T11:53:34.933Z,45.00
2018-06-21T11:54:34.850Z,50.63
2018-06-21T11:55:34.811Z,50.63
2018-06-21T11:56:34.788Z,56.25
2018-06-21T11:57:34.741Z,50.63
2018-06-21T11:58:34.727Z,50.63
2018-06-21T11:59:34.637Z,56.25
2018-06-21T12:00:34.594Z,56.25
2018-06-21T12:01:34.551Z,61.88
2018-06-21T12:02:34.540Z,67.50
2018-06-21T12:03:34.466Z,67.50
2018-06-21T12:04:34.424Z,61.88
2018-06-21T12:05:34.415Z,78.75
2018-06-21T12:06:34.337Z,106.88
2018-06-21T12:07:34.297Z,174.38
2018-06-21T12:08:34.284Z,219.38
2018-06-21T12:09:34.213Z,202.50
2018-06-21T12:10:34.190Z,230.63
2018-06-21T12:11:34.123Z,241.88
2018-06-21T12:12:34.090Z,360.00
2018-06-21T12:13:34.055Z,343.13
2018-06-21T12:14:34.050Z,303.75
2018-06-21T12:15:33.955Z,410.63
2018-06-21T12:16:33.962Z,421.88
2018-06-21T12:17:33.870Z,444.38
2018-06-21T12:18:33.828Z,427.50
2018-06-21T12:19:33.824Z,320.63
2018-06-21T12:20:33.745Z,421.88
2018-06-21T12:21:33.701Z,399.38
2018-06-21T12:22:33.662Z,315.00
2018-06-21T12:23:33.669Z,388.13
2018-06-21T12:24:33.617Z,376.88
2018-06-21T12:25:33.569Z,427.50
2018-06-21T12:26:33.595Z,438.75
2018-06-21T12:27:33.462Z,298.13
2018-06-21T12:28:33.426Z,292.50
2018-06-21T12:29:33.375Z,365.63
2018-06-21T12:30:33.344Z,427.50
2018-06-21T12:31:33.323Z,427.50
2018-06-21T12:32:33.251Z,303.75
2018-06-21T12:33:33.211Z,281.25
2018-06-21T12:34:33.173Z,354.38
2018-06-21T12:35:33.130Z,298.13
2018-06-21T12:36:33.122Z,286.88
2018-06-21T12:37:33.046Z,281.25
2018-06-21T12:38:33.012Z,247.50
2018-06-21T12:39:32.966Z,225.00
2018-06-21T12:40:32.929Z,191.25
2018-06-21T12:41:32.918Z,151.88
2018-06-21T12:42:32.909Z,146.25
2018-06-21T12:43:32.843Z,146.25
2018-06-21T12:44:32.768Z,146.25
2018-06-21T12:45:32.724Z,135.00
2018-06-21T12:46:32.685Z,151.88
2018-06-21T12:47:32.684Z,213.75